Latest Weather Observations for King Island Airport

IDT60801

Issued at 7:31 pm EST Friday 29 May 2015 (issued every 30 minutes, with the page automatically refreshed every 10 minutes)

About weather observations | Map of weather stations | Latest weather observations for TAS | Other Formats
Station Details ID: 098017 Name: KING ISLAND AIRPORT Lat: -39.88 Lon: 143.88 Height: 37.0 m
Data from the previous 72 hours. | See also: Recent months at King Island Airport
Date/Time
EST
Temp
°C
App
Temp
°C
Dew
Point
Rel
Hum
%
Delta-T
°C
Wind Press
QNH
hPa
Press
MSL
hPa
Rain
since 9 am
mm
Dir
 
Spd
km/h
Gust
km/h
Spd
kts
Gust
kts
29/07:30pm 12.0 5.0 6.9 71 2.4 WNW 33 41 18 22 1018.6 1018.6 0.2
29/07:00pm 12.1 5.8 7.2 72 2.4 WNW 30 39 16 21 1018.5 1018.5 0.2
29/06:30pm 11.8 5.2 7.7 76 2.0 WNW 32 39 17 21 1018.3 1018.3 0.2
29/06:00pm 12.0 5.4 7.9 76 2.0 WNW 32 43 17 23 1018.1 1018.1 0.2
29/05:30pm 12.0 5.2 6.9 71 2.4 WNW 32 48 17 26 1018.1 1018.1 0.2
29/05:27pm 11.9 5.6 7.2 73 2.3 WNW 30 48 16 26 1018.1 1018.1 0.2
29/05:00pm 12.0 5.0 6.9 71 2.4 WNW 33 46 18 25 1017.9 1017.9 0.2
29/04:30pm 12.1 5.3 7.8 75 2.1 WNW 33 46 18 25 1017.9 1017.9 0.2
29/04:00pm 12.2 5.9 7.5 73 2.3 WNW 30 41 16 22 1017.8 1017.8 0.2
29/03:30pm 13.0 6.3 7.5 69 2.7 WNW 32 39 17 21 1017.9 1017.9 0.2
29/03:00pm 13.4 6.3 8.0 70 2.7 WNW 35 46 19 25 1017.8 1017.8 0.2
29/02:30pm 13.2 6.5 8.1 71 2.5 WNW 33 46 18 25 1017.7 1017.7 0.2
29/02:00pm 13.0 7.5 9.3 78 1.9 WNW 28 37 15 20 1017.6 1017.6 0.2
29/01:43pm 11.7 5.6 8.2 79 1.7 WNW 30 48 16 26 1017.8 1017.8 0.2
29/01:30pm 12.7 6.2 6.7 67 2.9 W 30 39 16 21 1017.7 1017.7 0.0
29/01:00pm 13.1 6.3 7.1 67 2.9 WNW 32 48 17 26 1017.8 1017.8 0.0
29/12:55pm 12.7 6.7 7.0 68 2.8 WNW 28 48 15 26 1017.9 1017.9 0.0
29/12:30pm 12.4 6.5 7.7 73 2.3 WNW 28 35 15 19 1018.1 1018.1 0.0
29/12:02pm 12.8 6.1 7.3 69 2.7 W 32 50 17 27 1018.4 1018.4 0.0
29/12:00pm 13.3 7.0 7.3 67 2.9 W 30 44 16 24 1018.4 1018.4 0.0
29/11:30am 12.7 7.0 8.2 74 2.2 WNW 28 35 15 19 1018.7 1018.7 0.0
29/11:00am 11.6 4.8 7.1 74 2.2 WNW 32 41 17 22 1018.8 1018.8 0.0
29/10:43am 12.7 6.1 7.6 71 2.5 W 32 54 17 29 1018.8 1018.8 0.0
29/10:30am 12.9 6.0 6.3 64 3.1 W 32 43 17 23 1018.6 1018.6 0.0
29/10:00am 12.2 6.1 6.5 68 2.7 W 28 39 15 21 1018.4 1018.4 0.0
29/09:30am 11.8 6.4 6.5 70 2.5 W 24 33 13 18 1018.4 1018.4 0.0
29/09:00am 10.4 3.5 6.5 77 1.8 W 32 52 17 28 1018.3 1018.3 6.0
29/08:52am 10.9 4.4 6.6 75 2.0 W 30 50 16 27 1018.3 1018.3 6.0
29/08:30am 11.4 5.0 5.1 65 2.9 W 28 37 15 20 1017.9 1017.9 5.8
29/08:00am 11.1 4.6 4.6 64 2.9 W 28 39 15 21 1017.5 1017.5 5.8
29/07:30am 10.9 3.7 5.0 67 2.7 W 32 43 17 23 1017.2 1017.2 5.8
29/07:00am 11.0 3.6 4.2 63 3.0 W 32 43 17 23 1016.9 1016.9 5.8
29/06:30am 10.6 3.8 4.9 68 2.6 W 30 46 16 25 1016.4 1016.4 5.8
29/06:00am 10.1 3.1 6.1 76 1.9 WSW 32 50 17 27 1016.2 1016.2 5.8
29/05:45am 11.3 3.6 5.4 67 2.7 W 35 56 19 30 1016.0 1016.0 5.8
29/05:30am 11.1 3.8 5.4 68 2.6 W 33 43 18 23 1015.9 1015.9 5.8
29/05:09am 10.9 3.5 5.0 67 2.7 W 33 52 18 28 1016.0 1016.0 5.8
29/05:00am 10.9 3.6 5.4 69 2.5 W 33 48 18 26 1015.9 1015.9 5.8
29/04:46am 11.1 3.3 5.0 66 2.8 W 35 54 19 29 1015.7 1015.7 5.8
29/04:30am 11.1 3.0 5.4 68 2.6 W 37 54 20 29 1015.4 1015.4 5.8
29/04:19am 10.9 3.2 5.2 68 2.6 W 35 54 19 29 1015.3 1015.3 5.8
29/04:00am 10.7 3.2 6.1 73 2.1 W 35 50 19 27 1015.1 1015.1 5.8
29/03:42am 11.1 4.1 6.0 71 2.4 W 32 50 17 27 1015.0 1015.0 5.8
29/03:30am 10.4 3.4 5.8 73 2.1 W 32 44 17 24 1015.0 1015.0 5.8
29/03:15am 9.7 3.4 7.5 86 1.0 WNW 30 39 16 21 1015.0 1015.0 5.8
29/03:05am 9.0 1.2 6.8 86 1.0 W 37 56 20 30 1015.0 1015.0 5.8
29/03:03am 9.1 1.0 6.9 86 1.0 W 39 56 21 30 1015.1 1015.1 5.6
29/03:02am 9.4 1.7 7.2 86 1.0 W 37 56 20 30 1015.2 1015.2 5.6
29/03:00am 9.6 2.3 7.2 85 1.1 W 35 50 19 27 1015.1 1015.1 5.2
29/02:38am 10.5 3.0 6.5 76 1.9 WNW 35 57 19 31 1014.7 1014.7 4.8
29/02:30am 10.7 2.8 6.1 73 2.1 W 37 52 20 28 1014.5 1014.5 4.8
29/02:01am 10.8 4.2 6.0 72 2.2 W 30 48 16 26 1014.5 1014.5 4.8
29/02:00am 10.9 4.4 6.3 73 2.2 W 30 39 16 21 1014.5 1014.5 4.8
29/01:33am 11.3 4.2 6.2 71 2.4 W 33 61 18 33 1014.3 1014.3 4.8
29/01:30am 11.4 4.1 5.5 67 2.7 W 33 48 18 26 1014.1 1014.1 4.8
29/01:00am 11.2 3.8 5.1 66 2.8 W 33 52 18 28 1014.1 1014.1 4.8
29/12:30am 11.5 3.5 5.8 68 2.7 W 37 52 20 28 1014.0 1014.0 4.8
29/12:00am 11.4 3.3 5.3 66 2.8 W 37 56 20 30 1013.9 1013.9 4.8
 
Date/Time
EST
Temp
°C
App
Temp
°C
Dew
Point
Rel
Hum
%
Delta-T
°C
Wind Press
QNH
hPa
Press
MSL
hPa
Rain
since 9 am
mm
Dir
 
Spd
km/h
Gust
km/h
Spd
kts
Gust
kts
28/11:31pm 10.9 3.1 6.8 76 1.9 W 37 56 20 30 1014.0 1014.0 4.8
28/11:30pm 11.0 2.9 6.9 76 1.9 W 39 56 21 30 1014.0 1014.0 4.8
28/11:07pm 11.6 3.5 7.1 74 2.2 W 39 57 21 31 1013.6 1013.6 4.8
28/11:00pm 12.0 2.1 5.0 62 3.2 W 46 59 25 32 1013.6 1013.6 4.8
28/10:53pm 11.8 2.8 4.8 62 3.2 W 41 59 22 32 1013.5 1013.5 4.8
28/10:30pm 11.4 3.1 6.3 71 2.4 W 39 54 21 29 1013.4 1013.4 4.8
28/10:00pm 11.4 4.5 6.5 72 2.3 WNW 32 50 17 27 1013.3 1013.3 4.8
28/09:35pm 11.6 3.9 6.9 73 2.2 WNW 37 56 20 30 1013.4 1013.4 4.8
28/09:30pm 12.1 4.6 6.4 68 2.7 WNW 35 48 19 26 1013.1 1013.1 4.8
28/09:22pm 11.9 4.3 5.8 66 2.8 WNW 35 54 19 29 1013.0 1013.0 4.8
28/09:00pm 11.8 3.8 5.9 67 2.8 WNW 37 50 20 27 1012.9 1012.9 4.8
28/08:30pm 11.8 4.7 5.4 65 3.0 W 32 44 17 24 1012.6 1012.6 4.8
28/08:20pm 12.1 5.0 6.2 67 2.8 W 33 52 18 28 1012.6 1012.6 4.8
28/08:00pm 12.1 5.0 6.2 67 2.8 W 33 46 18 25 1012.5 1012.5 4.8
28/07:30pm 12.1 5.2 7.2 72 2.4 W 33 44 18 24 1012.3 1012.3 4.8
28/07:05pm 11.6 5.2 8.5 81 1.5 W 32 50 17 27 1012.0 1012.0 4.8
28/07:00pm 11.5 4.8 8.0 79 1.7 W 33 50 18 27 1012.2 1012.2 4.8
28/06:57pm 12.0 5.8 7.7 75 2.1 W 30 48 16 26 1012.2 1012.2 4.8
28/06:30pm 12.1 5.5 7.6 74 2.2 W 32 44 17 24 1011.8 1011.8 4.8
28/06:08pm 12.2 5.6 8.5 78 1.8 W 33 52 18 28 1011.6 1011.6 4.8
28/06:00pm 12.4 5.9 8.9 79 1.8 WNW 33 46 18 25 1011.4 1011.4 4.8
28/05:30pm 12.0 4.5 8.1 77 1.9 WNW 37 57 20 31 1011.3 1011.3 4.8
28/05:29pm 12.3 5.2 8.2 76 2.0 WNW 35 54 19 29 1011.4 1011.4 4.6
28/05:00pm 12.2 7.9 10.6 90 0.8 W 24 39 13 21 1010.9 1010.9 4.6
28/04:30pm 12.2 7.1 10.6 90 0.8 W 28 39 15 21 1010.8 1010.8 4.6
28/04:00pm 12.0 6.9 10.6 91 0.7 W 28 39 15 21 1010.7 1010.7 4.4
28/03:30pm 12.3 6.6 11.2 93 0.6 W 32 46 17 25 1010.2 1010.2 4.4
28/03:15pm 12.4 5.7 11.1 92 0.7 WNW 37 72 20 39 1009.9 1010.0 4.4
28/03:10pm 12.9 5.5 11.3 90 0.8 WNW 41 72 22 39 1009.9 1010.0 4.0
28/03:07pm 13.2 5.6 11.8 91 0.7 WNW 43 56 23 30 1009.7 1009.8 4.0
28/03:00pm 12.9 5.1 11.8 93 0.6 WNW 44 56 24 30 1009.7 1009.8 4.0
28/02:53pm 12.3 3.6 11.2 93 0.6 WNW 48 67 26 36 1009.7 1009.8 4.0
28/02:30pm 13.9 4.4 11.1 83 1.5 NW 52 63 28 34 1009.7 1009.8 0.2
28/02:00pm 15.8 6.6 11.0 73 2.6 NW 50 63 27 34 1009.4 1009.5 0.0
28/01:30pm 16.3 6.1 11.5 73 2.6 NW 56 76 30 41 1009.7 1009.8 0.0
28/01:24pm 15.6 5.8 11.4 76 2.3 NNW 54 76 29 41 1009.6 1009.7 0.0
28/01:00pm 15.2 6.6 11.6 79 1.9 NNW 48 61 26 33 1010.1 1010.1 0.0
28/12:30pm 15.6 8.2 12.5 82 1.7 NNW 43 54 23 29 1010.5 1010.5 0.0
28/12:00pm 14.2 4.6 10.8 80 1.8 NNW 52 70 28 38 1010.9 1010.9 0.0
28/11:47am 15.1 5.7 11.5 79 1.9 NNW 52 70 28 38 1011.0 1011.0 0.0
28/11:30am 15.9 7.5 12.3 79 2.0 NNW 48 61 26 33 1011.2 1011.2 0.0
28/11:00am 15.1 7.8 11.5 79 1.9 NNW 41 50 22 27 1011.7 1011.7 0.0
28/10:30am 13.9 6.1 9.9 77 2.1 NW 41 52 22 28 1012.3 1012.3 0.0
28/10:00am 15.6 7.5 12.0 79 2.0 NNW 46 59 25 32 1012.1 1012.1 0.0
28/09:30am 15.1 6.2 11.9 81 1.7 NNW 50 61 27 33 1012.2 1012.2 0.0
28/09:00am 14.9 6.4 12.0 83 1.6 NNW 48 61 26 33 1012.2 1012.2 4.8
28/08:42am 14.6 7.9 12.3 86 1.3 NNW 39 57 21 31 1012.2 1012.2 4.8
28/08:30am 14.5 7.8 12.4 87 1.1 NNW 39 48 21 26 1012.1 1012.1 4.8
28/08:00am 14.0 9.1 12.4 90 0.9 NNW 30 39 16 21 1012.2 1012.2 4.8
28/07:30am 13.5 6.8 10.9 84 1.4 NNW 37 52 20 28 1012.6 1012.6 4.8
28/07:00am 14.2 7.1 12.1 87 1.1 NNW 41 54 22 29 1012.7 1012.7 4.6
28/06:30am 14.2 8.3 12.4 89 1.0 NNW 35 48 19 26 1012.7 1012.7 4.6
28/06:00am 14.1 8.2 12.5 90 0.9 NNW 35 48 19 26 1012.5 1012.5 4.6
28/05:30am 14.1 8.7 12.8 92 0.7 NNW 33 43 18 23 1012.6 1012.6 4.6
28/05:00am 13.7 10.3 12.6 93 0.6 NNW 22 30 12 16 1012.9 1012.9 4.6
28/04:30am 13.3 9.8 12.2 93 0.6 NW 22 32 12 17 1013.1 1013.1 4.6
28/04:00am 13.2 8.5 12.1 93 0.6 NW 28 35 15 19 1013.5 1013.5 4.4
28/03:30am 13.1 8.3 11.8 92 0.7 WNW 28 37 15 20 1013.6 1013.6 4.2
28/03:09am 13.1 8.3 11.5 90 0.9 WNW 28 46 15 25 1013.8 1013.8 4.2
28/03:00am 13.5 7.7 11.6 88 1.0 WNW 33 52 18 28 1013.8 1013.8 4.2
28/02:30am 14.6 8.8 12.8 89 1.0 NNW 35 48 19 26 1013.5 1013.5 4.2
28/02:00am 14.0 9.2 12.9 93 0.6 NNW 30 37 16 20 1013.5 1013.5 4.2
28/01:30am 14.0 10.3 12.7 92 0.7 NNW 24 30 13 16 1013.8 1013.8 4.2
28/01:00am 13.9 9.5 12.8 93 0.6 NNW 28 37 15 20 1014.3 1014.3 4.2
28/12:30am 14.1 10.6 13.3 95 0.4 NNW 24 32 13 17 1014.6 1014.6 4.2
28/12:00am 13.9 10.3 13.1 95 0.4 NNW 24 30 13 16 1014.8 1014.8 4.2
 
Date/Time
EST
Temp
°C
App
Temp
°C
Dew
Point
Rel
Hum
%
Delta-T
°C
Wind Press
QNH
hPa
Press
MSL
hPa
Rain
since 9 am
mm
Dir
 
Spd
km/h
Gust
km/h
Spd
kts
Gust
kts
27/11:30pm 13.6 11.2 12.8 95 0.4 NW 17 22 9 12 1015.0 1015.0 4.2
27/11:17pm 13.4 10.4 12.5 94 0.5 NW 20 26 11 14 1015.0 1015.0 4.2
27/11:00pm 13.6 10.6 12.5 93 0.6 WNW 20 28 11 15 1015.1 1015.1 3.8
27/10:30pm 13.8 9.4 12.9 94 0.5 NW 28 32 15 17 1015.3 1015.3 3.0
27/10:00pm 13.8 8.9 12.7 93 0.6 NNW 30 39 16 21 1015.3 1015.3 3.0
27/09:34pm 14.1 9.0 13.0 93 0.6 NW 32 39 17 21 1015.2 1015.2 3.0
27/09:30pm 14.0 8.8 12.9 93 0.6 NW 32 41 17 22 1015.2 1015.2 3.0
27/09:16pm 13.6 10.5 12.3 92 0.7 NW 20 46 11 25 1015.1 1015.1 3.0
27/09:13pm 14.3 12.0 13.0 92 0.7 NNW 17 24 9 13 1015.4 1015.4 2.0
27/09:00pm 14.5 11.8 12.9 90 0.9 NNW 19 24 10 13 1015.2 1015.2 0.0
27/08:30pm 14.3 10.9 12.5 89 1.0 NNW 22 28 12 15 1015.3 1015.3 0.0
27/08:00pm 14.2 10.2 12.9 92 0.7 NW 26 32 14 17 1015.3 1015.3 0.0
27/07:30pm 14.4 9.7 13.1 92 0.7 NNW 30 39 16 21 1015.5 1015.5 0.0
27/07:00pm 14.7 9.3 12.9 89 1.0 NNW 33 44 18 24 1015.4 1015.4 0.0
27/06:30pm 14.6 8.8 12.6 88 1.1 NNW 35 46 19 25 1015.3 1015.3 0.0
27/06:00pm 14.5 9.0 12.5 88 1.1 NNW 33 41 18 22 1015.2 1015.2 0.0
27/05:41pm 14.5 9.0 12.5 88 1.1 NNW 33 54 18 29 1015.3 1015.3 0.0
27/05:30pm 14.9 10.3 12.4 85 1.4 NNW 28 35 15 19 1015.0 1015.0 0.0
27/05:00pm 15.0 10.3 12.1 83 1.6 NNW 28 39 15 21 1014.9 1014.9 0.0
27/04:30pm 14.9 10.2 11.9 82 1.6 NNW 28 35 15 19 1014.7 1014.7 0.0
27/04:00pm 15.1 10.4 11.9 81 1.7 NNW 28 37 15 20 1014.9 1014.9 0.0
27/03:30pm 15.1 10.9 12.4 84 1.5 NNW 26 35 14 19 1015.2 1015.2 0.0
27/03:00pm 15.7 10.8 12.5 81 1.8 NNW 30 39 16 21 1015.1 1015.1 0.0
27/02:30pm 16.1 10.9 12.7 80 1.9 NNW 32 39 17 21 1015.0 1015.0 0.0
27/02:00pm 16.0 10.7 12.4 79 2.0 NNW 32 39 17 21 1015.2 1015.2 0.0
27/01:30pm 15.8 10.2 12.0 78 2.1 NNW 33 43 18 23 1015.6 1015.6 0.0
27/01:00pm 15.8 10.1 11.8 77 2.2 NNW 33 39 18 21 1015.9 1015.9 0.0
27/12:30pm 15.4 9.7 11.8 79 2.0 NNW 33 43 18 23 1016.3 1016.3 0.0
27/12:00pm 15.0 9.9 11.8 81 1.7 NNW 30 41 16 22 1016.8 1016.8 0.0
27/11:30am 15.0 10.6 11.8 81 1.7 NNW 26 35 14 19 1017.2 1017.2 0.0
27/11:00am 15.1 10.0 11.9 81 1.7 N 30 37 16 20 1017.3 1017.3 0.0
27/10:30am 15.5 10.9 12.3 81 1.8 N 28 39 15 21 1017.5 1017.5 0.0
27/10:00am 15.0 10.3 12.0 82 1.6 N 28 39 15 21 1017.4 1017.4 0.0
27/09:30am 14.7 10.0 12.0 84 1.5 N 28 37 15 20 1017.6 1017.6 0.0
27/09:00am 13.5 10.4 12.1 91 0.8 N 20 26 11 14 1017.7 1017.7 1.2
27/08:30am 12.7 9.5 11.8 94 0.5 NNE 20 26 11 14 1017.8 1017.8 1.2
27/08:00am 12.4 9.3 11.6 95 0.4 NNE 19 24 10 13 1017.5 1017.5 1.2
27/07:30am 12.2 9.0 11.4 95 0.4 NNE 19 24 10 13 1017.5 1017.5 1.2
27/07:00am 12.7 10.1 11.9 95 0.4 NNE 17 22 9 12 1017.6 1017.6 1.2
27/06:30am 12.6 10.3 11.8 95 0.4 NNE 15 19 8 10 1017.5 1017.5 1.2
27/06:00am 12.8 9.6 11.9 94 0.5 N 20 28 11 15 1017.7 1017.7 1.2
27/05:30am 12.9 9.8 12.1 95 0.4 N 20 28 11 15 1018.0 1018.0 1.2
27/05:00am 12.9 9.2 11.6 92 0.7 NNW 22 33 12 18 1018.4 1018.4 0.6
27/04:30am 12.3 10.6 11.2 93 0.6 NNE 11 13 6 7 1018.5 1018.5 0.2
27/04:00am 12.4 10.0 11.3 93 0.6 NNE 15 20 8 11 1018.4 1018.4 0.0
27/03:30am 12.3 9.5 11.4 94 0.5 NNE 17 22 9 12 1019.0 1019.0 0.0
27/03:00am 11.9 9.8 11.1 95 0.4 NNE 13 17 7 9 1019.3 1019.3 0.0
27/02:30am 11.6 9.4 10.8 95 0.4 NE 13 19 7 10 1019.4 1019.4 0.0
27/02:00am 11.5 9.7 10.7 95 0.4 NE 11 15 6 8 1019.8 1019.8 0.0
27/01:30am 11.5 9.2 10.6 94 0.5 NE 13 15 7 8 1020.1 1020.1 0.0
27/01:00am 11.4 9.1 10.5 94 0.5 NE 13 17 7 9 1020.4 1020.4 0.0
27/12:30am 11.1 8.7 10.2 94 0.5 NE 13 17 7 9 1021.0 1021.0 0.0
27/12:00am 11.0 8.2 9.9 93 0.6 NE 15 19 8 10 1021.4 1021.4 0.0
 
Date/Time
EST
Temp
°C
App
Temp
°C
Dew
Point
Rel
Hum
%
Delta-T
°C
Wind Press
QNH
hPa
Press
MSL
hPa
Rain
since 9 am
mm
Dir
 
Spd
km/h
Gust
km/h
Spd
kts
Gust
kts
26/11:30pm 11.0 8.2 10.1 94 0.5 NE 15 17 8 9 1021.7 1021.7 0.0
26/11:00pm 10.6 7.7 9.8 95 0.4 ENE 15 19 8 10 1022.0 1022.0 0.0
26/10:30pm 10.8 8.0 10.0 95 0.4 ENE 15 19 8 10 1022.3 1022.3 0.0
26/10:00pm 10.6 8.2 10.1 97 0.3 NE 13 19 7 10 1022.6 1022.6 0.0
26/09:30pm 10.1 7.6 9.8 98 0.2 ENE 13 17 7 9 1022.7 1022.7 0.0
26/09:00pm 10.1 7.6 9.8 98 0.2 ENE 13 17 7 9 1022.8 1022.8 0.0
26/08:30pm 9.9 7.3 9.4 97 0.2 ENE 13 15 7 8 1023.0 1023.0 0.0
26/08:00pm 10.7 8.3 10.2 97 0.3 ENE 13 19 7 10 1023.3 1023.3 0.0
26/07:34pm 10.9 8.6 10.4 97 0.3 ENE 13 17 7 9 1023.4 1023.4 0.0

Other Formats:

Comma delimited format used in spreadsheet applications
http://www.bom.gov.au/fwo/IDT60801/IDT60801.94850.axf

JavaScript Object Notation format (JSON) in row-major order
http://www.bom.gov.au/fwo/IDT60801/IDT60801.94850.json